createdAt,value
2018-07-09T00:01:01.481Z,3.80
2018-07-09T00:03:29.861Z,3.53
2018-07-09T00:05:58.263Z,4.00
2018-07-09T00:08:26.829Z,4.03
2018-07-09T00:11:03.161Z,3.40
2018-07-09T00:13:32.237Z,3.80
2018-07-09T00:16:00.820Z,4.00
2018-07-09T00:18:29.292Z,4.10
2018-07-09T00:20:57.737Z,3.80
2018-07-09T00:23:26.155Z,4.37
2018-07-09T00:25:55.281Z,3.63
2018-07-09T00:28:24.986Z,3.47
2018-07-09T00:30:53.261Z,4.00
2018-07-09T00:33:22.049Z,3.80
2018-07-09T00:35:50.513Z,4.00
2018-07-09T00:38:19.515Z,4.40
2018-07-09T00:40:47.989Z,4.20
2018-07-09T00:43:16.423Z,3.90
2018-07-09T00:45:44.965Z,4.00
2018-07-09T00:48:13.440Z,4.10
2018-07-09T00:50:41.930Z,3.80
2018-07-09T00:53:10.353Z,3.90
2018-07-09T00:55:39.537Z,4.07
2018-07-09T00:58:07.977Z,3.77
2018-07-09T01:00:36.433Z,3.97
2018-07-09T01:03:04.949Z,3.50
2018-07-09T01:05:33.400Z,3.70
2018-07-09T01:08:01.859Z,3.50
2018-07-09T01:10:30.254Z,3.50
2018-07-09T01:12:58.644Z,3.47
2018-07-09T01:15:27.125Z,3.70
2018-07-09T01:17:55.588Z,3.63
2018-07-09T01:20:24.123Z,3.50
2018-07-09T01:22:52.533Z,3.83
2018-07-09T01:25:20.912Z,3.97
2018-07-09T01:27:49.422Z,3.97
2018-07-09T01:30:17.846Z,4.10
2018-07-09T01:32:46.208Z,3.87
2018-07-09T01:35:14.814Z,3.63
2018-07-09T01:37:43.634Z,4.17
2018-07-09T01:40:12.101Z,4.00
2018-07-09T01:42:40.499Z,3.90
2018-07-09T01:45:08.964Z,4.10
2018-07-09T01:47:37.357Z,3.93
2018-07-09T01:50:05.805Z,4.27
2018-07-09T01:52:34.173Z,4.17
2018-07-09T01:55:02.566Z,4.20
2018-07-09T01:57:30.948Z,4.50
2018-07-09T01:59:59.377Z,4.57
2018-07-09T02:02:27.755Z,4.67
2018-07-09T02:04:55.837Z,4.87
2018-07-09T02:07:24.236Z,4.90
2018-07-09T02:09:52.622Z,5.00
2018-07-09T02:12:21.150Z,4.80
2018-07-09T02:14:49.580Z,5.20
2018-07-09T02:17:18.069Z,5.33
2018-07-09T02:19:46.474Z,5.30
2018-07-09T02:22:14.918Z,5.40
2018-07-09T02:24:43.338Z,5.20
2018-07-09T02:27:11.742Z,6.37
2018-07-09T02:29:40.154Z,6.07
2018-07-09T02:32:08.561Z,5.73
2018-07-09T02:34:36.957Z,5.80
2018-07-09T02:37:05.400Z,5.10
2018-07-09T02:39:34.221Z,5.60
2018-07-09T02:42:02.707Z,5.57
2018-07-09T02:44:31.124Z,5.40
2018-07-09T02:46:59.541Z,5.43
2018-07-09T02:49:27.999Z,5.30
2018-07-09T02:51:56.501Z,5.30
2018-07-09T02:54:24.900Z,5.50
2018-07-09T02:56:53.311Z,5.57
2018-07-09T02:59:21.669Z,5.07
2018-07-09T03:01:50.564Z,5.57
2018-07-09T03:04:18.975Z,5.37
2018-07-09T03:06:47.407Z,5.23
2018-07-09T03:09:15.781Z,5.50
2018-07-09T03:11:44.190Z,5.43
2018-07-09T03:14:12.646Z,5.50
2018-07-09T03:16:41.081Z,5.10
2018-07-09T03:19:09.624Z,5.20
2018-07-09T03:21:38.533Z,5.50
2018-07-09T03:24:06.931Z,5.60
2018-07-09T03:26:35.369Z,5.27
2018-07-09T03:29:03.782Z,5.57
2018-07-09T03:31:32.161Z,5.70
2018-07-09T03:34:00.586Z,5.43
2018-07-09T03:36:29.027Z,5.83
2018-07-09T03:38:57.396Z,5.67
2018-07-09T03:41:25.843Z,6.00
2018-07-09T03:43:54.258Z,5.93
2018-07-09T03:46:22.678Z,5.93
2018-07-09T03:48:51.126Z,5.90
2018-07-09T03:51:19.553Z,6.33
2018-07-09T03:53:47.951Z,6.40
2018-07-09T03:56:16.358Z,6.00
2018-07-09T03:58:44.786Z,6.80
2018-07-09T04:01:13.188Z,7.10
2018-07-09T04:03:41.629Z,6.53
2018-07-09T04:06:10.045Z,6.47
2018-07-09T04:08:38.422Z,6.37
2018-07-09T04:11:06.833Z,6.67
2018-07-09T04:13:35.227Z,6.10
2018-07-09T04:16:04.251Z,6.03
2018-07-09T04:18:32.628Z,6.13
2018-07-09T04:21:01.045Z,6.40
2018-07-09T04:23:29.424Z,6.83
2018-07-09T04:25:57.829Z,7.37
2018-07-09T04:28:26.201Z,6.40
2018-07-09T04:30:54.618Z,6.73
2018-07-09T04:33:23.077Z,7.20
2018-07-09T04:35:51.515Z,6.93
2018-07-09T04:38:19.918Z,7.77
2018-07-09T04:40:48.313Z,6.77
2018-07-09T04:43:16.858Z,7.47
2018-07-09T04:45:45.261Z,7.73
2018-07-09T04:48:13.659Z,7.47
2018-07-09T04:50:42.184Z,7.67
2018-07-09T04:53:10.597Z,7.33
2018-07-09T04:55:38.713Z,8.00
2018-07-09T04:58:07.112Z,7.73
2018-07-09T05:00:35.542Z,8.30
2018-07-09T05:03:04.049Z,8.30
2018-07-09T05:05:32.611Z,8.93
2018-07-09T05:08:01.025Z,8.60
2018-07-09T05:10:29.433Z,8.70
2018-07-09T05:12:58.103Z,8.03
2018-07-09T05:15:26.487Z,7.93
2018-07-09T05:17:54.902Z,8.10
2018-07-09T05:20:23.343Z,8.77
2018-07-09T05:22:51.752Z,7.43
2018-07-09T05:25:20.121Z,8.80
2018-07-09T05:27:48.497Z,8.57
2018-07-09T05:30:16.992Z,8.20
2018-07-09T05:32:45.423Z,8.17
2018-07-09T05:35:13.829Z,8.23
2018-07-09T05:37:42.305Z,7.40
2018-07-09T05:40:10.743Z,6.43
2018-07-09T05:42:38.888Z,8.00
2018-07-09T05:45:07.615Z,6.77
2018-07-09T05:47:36.177Z,7.50
2018-07-09T05:50:04.639Z,4.93
2018-07-09T05:52:33.014Z,4.90
2018-07-09T05:55:01.514Z,6.63
2018-07-09T05:57:29.997Z,5.80
2018-07-09T05:59:58.397Z,5.50
2018-07-09T06:02:27.474Z,6.03
2018-07-09T06:04:55.938Z,5.67
2018-07-09T06:07:24.389Z,6.03
2018-07-09T06:09:52.899Z,5.77
2018-07-09T06:12:21.340Z,5.53
2018-07-09T06:14:50.559Z,5.47
2018-07-09T06:17:18.920Z,5.77
2018-07-09T06:19:47.392Z,5.20
2018-07-09T06:22:15.857Z,4.90
2018-07-09T06:24:44.353Z,4.77
2018-07-09T06:27:12.738Z,5.37
2018-07-09T06:29:41.143Z,5.20
2018-07-09T06:32:09.601Z,5.33
2018-07-09T06:34:37.955Z,4.70
2018-07-09T06:37:06.446Z,4.70
2018-07-09T06:39:34.873Z,4.20
2018-07-09T06:42:03.352Z,4.07
2018-07-09T06:44:31.770Z,4.70
2018-07-09T06:47:00.198Z,5.03
2018-07-09T06:49:28.751Z,4.93
2018-07-09T06:51:57.149Z,4.33
2018-07-09T06:54:25.659Z,6.30
2018-07-09T06:56:54.295Z,4.97
2018-07-09T06:59:22.927Z,5.33
2018-07-09T07:01:51.422Z,5.13
2018-07-09T07:04:19.827Z,6.50
2018-07-09T07:06:48.590Z,5.83
2018-07-09T07:09:17.935Z,6.43
2018-07-09T07:11:46.358Z,6.63
2018-07-09T07:14:14.908Z,7.83
2018-07-09T07:16:43.395Z,7.23
2018-07-09T07:19:11.868Z,6.43
2018-07-09T07:21:40.314Z,6.37
2018-07-09T07:24:08.786Z,5.97
2018-07-09T07:26:37.270Z,4.73
2018-07-09T07:29:05.735Z,7.03
2018-07-09T07:31:34.690Z,6.40
2018-07-09T07:34:03.066Z,7.10
2018-07-09T07:36:31.575Z,7.03
2018-07-09T07:38:59.928Z,7.00
2018-07-09T07:41:28.340Z,7.23
2018-07-09T07:43:56.829Z,7.27
2018-07-09T07:46:25.270Z,7.63
2018-07-09T07:48:53.751Z,7.77
2018-07-09T07:51:22.195Z,8.07
2018-07-09T07:53:50.594Z,7.77
2018-07-09T07:56:19.056Z,6.60
2018-07-09T07:58:47.209Z,6.13
2018-07-09T08:01:16.329Z,6.27
2018-07-09T08:03:44.786Z,4.90
2018-07-09T08:06:13.285Z,7.20
2018-07-09T08:08:41.797Z,7.10
2018-07-09T08:11:11.325Z,5.30
2018-07-09T08:13:39.370Z,4.00
2018-07-09T08:16:07.826Z,6.00
2018-07-09T08:18:36.275Z,4.60
2018-07-09T08:21:04.897Z,4.37
2018-07-09T08:23:33.431Z,5.63
2018-07-09T08:26:01.884Z,6.10
2018-07-09T08:28:30.421Z,6.20
2018-07-09T08:30:59.057Z,6.30
2018-07-09T08:33:27.373Z,6.73
2018-07-09T08:35:55.805Z,6.83
2018-07-09T08:38:24.345Z,6.00
2018-07-09T08:40:52.798Z,3.13
2018-07-09T08:43:21.233Z,5.03
2018-07-09T08:45:49.669Z,5.13
2018-07-09T08:48:18.043Z,5.20
2018-07-09T08:50:46.554Z,5.50
2018-07-09T08:53:14.996Z,5.97
2018-07-09T08:55:43.457Z,5.97
2018-07-09T08:58:11.837Z,5.17
2018-07-09T09:00:40.329Z,5.63
2018-07-09T09:03:08.769Z,3.20
2018-07-09T09:05:37.228Z,6.10
2018-07-09T09:08:05.730Z,3.80
2018-07-09T09:10:34.165Z,4.83
2018-07-09T09:13:02.570Z,6.00
2018-07-09T09:15:31.020Z,4.70
2018-07-09T09:17:59.481Z,4.97
2018-07-09T09:20:27.889Z,5.10
2018-07-09T09:22:56.337Z,5.40
2018-07-09T09:27:59.590Z,4.60
2018-07-09T09:30:27.974Z,4.23
2018-07-09T09:32:56.436Z,5.20
2018-07-09T09:35:24.856Z,4.80
2018-07-09T09:37:53.289Z,3.73
2018-07-09T09:40:21.715Z,4.67
2018-07-09T09:42:50.150Z,4.77
2018-07-09T09:45:18.618Z,4.47
2018-07-09T09:47:47.033Z,4.30
2018-07-09T09:50:15.504Z,4.40
2018-07-09T09:52:43.930Z,5.40
2018-07-09T09:55:12.330Z,3.93
2018-07-09T09:57:40.754Z,3.97
2018-07-09T10:00:09.241Z,4.30
2018-07-09T10:02:37.704Z,4.90
2018-07-09T10:05:06.214Z,4.90
2018-07-09T10:07:34.616Z,4.40
2018-07-09T10:10:03.502Z,4.70
2018-07-09T10:12:31.974Z,4.50
2018-07-09T10:15:00.401Z,3.53
2018-07-09T10:17:28.801Z,4.00
2018-07-09T10:19:57.270Z,5.00
2018-07-09T10:22:25.691Z,3.93
2018-07-09T10:24:54.090Z,4.33
2018-07-09T10:27:22.554Z,4.63
2018-07-09T10:29:51.662Z,3.87
2018-07-09T10:32:20.067Z,3.20
2018-07-09T10:34:48.536Z,3.00
2018-07-09T10:37:16.955Z,3.60
2018-07-09T10:39:45.362Z,2.93
2018-07-09T10:42:13.752Z,3.03
2018-07-09T10:44:42.137Z,3.23
2018-07-09T10:47:10.552Z,2.60
2018-07-09T10:49:39.092Z,2.37
2018-07-09T10:52:07.620Z,3.00
2018-07-09T10:54:36.059Z,2.87
2018-07-09T10:57:04.590Z,3.00
2018-07-09T10:59:33.065Z,2.80
2018-07-09T11:02:01.522Z,2.80
2018-07-09T11:04:30.571Z,3.00
2018-07-09T11:06:59.002Z,3.00
2018-07-09T11:09:27.427Z,3.10
2018-07-09T11:11:55.844Z,2.90
2018-07-09T11:14:24.229Z,2.77
2018-07-09T11:16:52.639Z,3.57
2018-07-09T11:19:21.368Z,3.17
2018-07-09T11:21:49.739Z,3.23
2018-07-09T11:24:18.161Z,2.80
2018-07-09T11:26:46.817Z,2.23
2018-07-09T11:29:15.252Z,3.00
2018-07-09T11:31:44.001Z,3.60
2018-07-09T11:34:12.563Z,2.47
2018-07-09T11:36:40.941Z,2.50
2018-07-09T11:39:09.450Z,2.50
2018-07-09T11:41:37.823Z,3.30
2018-07-09T11:44:06.301Z,2.30
2018-07-09T11:46:34.741Z,3.17
2018-07-09T11:49:03.190Z,2.70
2018-07-09T11:51:32.449Z,3.30
2018-07-09T11:54:00.915Z,3.27
2018-07-09T11:56:29.328Z,3.77
2018-07-09T11:58:57.868Z,3.30
2018-07-09T12:01:26.290Z,3.63
2018-07-09T12:03:54.781Z,3.13
2018-07-09T12:06:23.266Z,2.60
2018-07-09T12:08:51.516Z,3.10
2018-07-09T12:11:19.958Z,2.30
2018-07-09T12:13:48.367Z,2.73
2018-07-09T12:16:16.808Z,2.60
2018-07-09T12:18:45.352Z,2.20
2018-07-09T12:21:13.974Z,2.20
2018-07-09T12:23:42.307Z,2.90
2018-07-09T12:26:10.706Z,2.00
2018-07-09T12:28:39.448Z,2.70
2018-07-09T12:31:08.003Z,3.20
2018-07-09T12:33:36.413Z,2.93
2018-07-09T12:36:06.022Z,3.07
2018-07-09T12:38:34.565Z,2.57
2018-07-09T12:41:03.001Z,3.20
2018-07-09T12:43:31.403Z,3.00
2018-07-09T12:45:59.805Z,2.73
2018-07-09T12:48:27.903Z,3.23
2018-07-09T12:50:56.362Z,2.73
2018-07-09T12:53:25.354Z,3.10
2018-07-09T12:55:53.808Z,3.20
2018-07-09T12:58:22.293Z,2.63
2018-07-09T13:00:50.737Z,2.30
2018-07-09T13:03:19.154Z,2.67
2018-07-09T13:05:47.665Z,2.20
2018-07-09T13:08:16.109Z,2.40
2018-07-09T13:10:44.563Z,2.60
2018-07-09T13:13:12.981Z,2.60
2018-07-09T13:15:41.549Z,2.90
2018-07-09T13:18:09.978Z,2.07
2018-07-09T13:20:38.117Z,3.10
2018-07-09T13:23:06.554Z,2.73
2018-07-09T13:25:35.000Z,2.70
2018-07-09T13:28:03.501Z,2.83
2018-07-09T13:30:31.958Z,3.00
2018-07-09T13:33:00.410Z,2.80
2018-07-09T13:35:28.909Z,2.37
2018-07-09T13:37:57.438Z,2.50
2018-07-09T13:40:25.979Z,1.90
2018-07-09T13:42:54.503Z,2.33
2018-07-09T13:45:22.894Z,2.30
2018-07-09T13:47:51.489Z,2.40
2018-07-09T13:50:19.897Z,2.60
2018-07-09T13:52:48.386Z,2.20
2018-07-09T13:55:16.834Z,2.13
2018-07-09T13:57:45.275Z,2.20
2018-07-09T14:00:13.424Z,2.00
2018-07-09T14:02:41.969Z,1.90
2018-07-09T14:05:10.440Z,1.80
2018-07-09T14:07:39.008Z,1.77
2018-07-09T14:10:07.557Z,1.83
2018-07-09T14:12:35.937Z,1.60
2018-07-09T14:15:04.603Z,1.60
2018-07-09T14:17:33.017Z,1.87
2018-07-09T14:20:26.905Z,1.53
2018-07-09T14:22:55.374Z,1.77
2018-07-09T14:25:23.800Z,1.90
2018-07-09T14:27:52.221Z,1.80
2018-07-09T14:30:20.708Z,2.00
2018-07-09T14:32:49.142Z,1.57
2018-07-09T14:35:17.694Z,2.23
2018-07-09T14:37:46.136Z,1.80
2018-07-09T14:40:14.546Z,1.73
2018-07-09T14:42:42.964Z,1.50
2018-07-09T14:45:11.409Z,1.90
2018-07-09T14:47:39.889Z,1.80
2018-07-09T14:50:08.299Z,1.50
2018-07-09T14:52:36.763Z,1.60
2018-07-09T14:55:05.382Z,1.80
2018-07-09T14:57:33.789Z,1.60
2018-07-09T15:00:02.635Z,1.67
2018-07-09T15:02:31.109Z,1.60
2018-07-09T15:04:59.501Z,1.43
2018-07-09T15:07:27.573Z,1.70
2018-07-09T15:09:55.999Z,1.80
2018-07-09T15:12:24.491Z,2.00
2018-07-09T15:14:52.962Z,1.90
2018-07-09T15:17:21.502Z,1.80
2018-07-09T15:19:49.953Z,1.77
2018-07-09T15:22:18.380Z,1.40
2018-07-09T15:24:46.887Z,1.50
2018-07-09T15:27:15.463Z,1.30
2018-07-09T15:29:43.941Z,1.23
2018-07-09T15:32:20.693Z,1.30
2018-07-09T15:34:49.057Z,1.50
2018-07-09T15:37:17.528Z,2.20
2018-07-09T15:39:45.973Z,1.70
2018-07-09T15:42:14.617Z,2.00
2018-07-09T15:44:43.079Z,1.87
2018-07-09T15:47:11.552Z,2.00
2018-07-09T15:49:40.579Z,2.10
2018-07-09T15:52:09.009Z,1.90
2018-07-09T15:54:37.485Z,1.80
2018-07-09T15:57:05.988Z,2.17
2018-07-09T15:59:34.442Z,1.80
2018-07-09T16:02:02.896Z,2.30
2018-07-09T16:04:31.317Z,2.03
2018-07-09T16:06:59.763Z,2.30
2018-07-09T16:09:27.895Z,1.97
2018-07-09T16:11:56.309Z,1.63
2018-07-09T16:14:24.750Z,2.50
2018-07-09T16:16:53.287Z,2.33
2018-07-09T16:19:21.701Z,2.77
2018-07-09T16:21:50.116Z,2.90
2018-07-09T16:24:18.593Z,2.50
2018-07-09T16:26:46.970Z,2.80
2018-07-09T16:29:15.509Z,2.87
2018-07-09T16:31:43.884Z,3.00
2018-07-09T16:34:11.985Z,2.80
2018-07-09T16:36:40.402Z,2.87
2018-07-09T16:39:08.949Z,2.53
2018-07-09T16:41:37.349Z,2.20
2018-07-09T16:44:05.773Z,2.33
2018-07-09T16:46:34.026Z,2.97
2018-07-09T16:49:02.478Z,2.80
2018-07-09T16:51:31.830Z,2.27
2018-07-09T16:54:00.310Z,3.10
2018-07-09T16:56:28.818Z,3.03
2018-07-09T16:58:57.262Z,2.40
2018-07-09T17:01:25.743Z,2.40
2018-07-09T17:03:55.169Z,2.50
2018-07-09T17:06:23.982Z,2.60
2018-07-09T17:08:53.230Z,2.87
2018-07-09T17:11:21.633Z,2.53
2018-07-09T17:13:50.223Z,2.40
2018-07-09T17:16:19.235Z,2.23
2018-07-09T17:18:47.622Z,2.80
2018-07-09T17:21:16.057Z,2.57
2018-07-09T17:23:44.481Z,3.10
2018-07-09T17:26:14.193Z,3.33
2018-07-09T17:28:42.576Z,2.83
2018-07-09T17:31:11.053Z,2.53
2018-07-09T17:33:39.534Z,3.50
2018-07-09T17:36:07.998Z,3.03
2018-07-09T17:38:36.398Z,2.83
2018-07-09T17:41:04.846Z,2.93
2018-07-09T17:43:33.263Z,2.80
2018-07-09T17:46:01.768Z,2.00
2018-07-09T17:48:30.196Z,3.00
2018-07-09T17:50:58.782Z,3.00
2018-07-09T17:53:27.261Z,3.40
2018-07-09T17:55:56.546Z,3.20
2018-07-09T17:58:25.001Z,3.47
2018-07-09T18:00:53.528Z,3.50
2018-07-09T18:03:21.961Z,2.90
2018-07-09T18:05:50.398Z,3.27
2018-07-09T18:08:18.835Z,3.20
2018-07-09T18:10:47.282Z,3.23
2018-07-09T18:13:15.729Z,3.37
2018-07-09T18:15:44.905Z,3.50
2018-07-09T18:18:13.338Z,3.53
2018-07-09T18:20:41.771Z,2.70
2018-07-09T18:23:10.286Z,3.10
2018-07-09T18:25:38.697Z,3.60
2018-07-09T18:28:07.120Z,2.60
2018-07-09T18:30:35.629Z,2.77
2018-07-09T18:33:04.160Z,2.70
2018-07-09T18:35:32.745Z,3.70
2018-07-09T18:38:01.094Z,3.30
2018-07-09T18:40:29.653Z,3.27
2018-07-09T18:42:58.142Z,3.77
2018-07-09T18:45:26.525Z,3.80
2018-07-09T18:47:55.035Z,3.70
2018-07-09T18:50:23.553Z,3.30
2018-07-09T18:52:51.945Z,3.27
2018-07-09T18:55:20.365Z,3.03
2018-07-09T18:57:48.531Z,3.30
2018-07-09T19:00:17.030Z,2.97
2018-07-09T19:02:45.572Z,3.73
2018-07-09T19:05:14.120Z,3.87
2018-07-09T19:07:42.655Z,3.93
2018-07-09T19:10:11.826Z,3.53
2018-07-09T19:12:40.573Z,3.53
2018-07-09T19:15:09.066Z,3.83
2018-07-09T19:18:02.053Z,3.80
2018-07-09T19:20:42.017Z,3.43
2018-07-09T19:23:09.924Z,4.40
2018-07-09T19:25:37.901Z,3.90
2018-07-09T19:28:07.234Z,3.67
2018-07-09T19:30:34.826Z,2.90
2018-07-09T19:33:02.148Z,3.97
2018-07-09T19:35:29.559Z,4.27
2018-07-09T19:37:59.169Z,4.47
2018-07-09T19:40:26.322Z,3.80
2018-07-09T19:42:53.648Z,4.40
2018-07-09T19:45:20.953Z,3.97
2018-07-09T19:47:48.378Z,4.10
2018-07-09T19:50:15.673Z,3.93
2018-07-09T19:52:42.960Z,4.47
2018-07-09T19:55:10.314Z,4.10
2018-07-09T19:57:37.608Z,3.50
2018-07-09T20:00:04.926Z,3.60
2018-07-09T20:02:32.256Z,3.07
2018-07-09T20:04:59.618Z,3.27
2018-07-09T20:07:26.936Z,4.00
2018-07-09T20:09:59.494Z,3.60
2018-07-09T20:12:32.172Z,4.03
2018-07-09T20:15:04.946Z,5.90
2018-07-09T20:17:35.603Z,23.87
2018-07-09T20:20:02.986Z,4.40
2018-07-09T20:22:30.314Z,3.60
2018-07-09T20:24:57.684Z,4.27
2018-07-09T20:27:24.990Z,3.03
2018-07-09T20:29:52.295Z,3.57
2018-07-09T20:32:19.612Z,3.63
2018-07-09T20:34:46.906Z,3.80
2018-07-09T20:37:14.251Z,3.40
2018-07-09T20:39:42.168Z,3.70
2018-07-09T20:42:09.740Z,4.07
2018-07-09T20:44:37.029Z,3.80
2018-07-09T20:47:04.423Z,3.60
2018-07-09T20:49:31.727Z,3.30
2018-07-09T20:51:59.074Z,3.90
2018-07-09T20:54:26.394Z,3.23
2018-07-09T20:56:53.781Z,3.37
2018-07-09T20:59:21.084Z,3.20
2018-07-09T21:01:48.585Z,2.73
2018-07-09T21:04:21.136Z,3.33
2018-07-09T21:06:48.430Z,3.37
2018-07-09T21:09:15.998Z,3.20
2018-07-09T21:11:43.413Z,3.00
2018-07-09T21:14:10.750Z,3.00
2018-07-09T21:16:38.021Z,3.10
2018-07-09T21:19:05.594Z,2.97
2018-07-09T21:21:32.901Z,2.13
2018-07-09T21:24:00.241Z,2.63
2018-07-09T21:26:27.557Z,2.90
2018-07-09T21:28:55.213Z,2.60
2018-07-09T21:31:22.428Z,2.60
2018-07-09T21:33:49.726Z,2.80
2018-07-09T21:36:17.079Z,2.80
2018-07-09T21:38:44.381Z,2.60
2018-07-09T21:41:12.070Z,2.67
2018-07-09T21:43:39.587Z,2.60
2018-07-09T21:46:06.846Z,2.60
2018-07-09T21:48:34.640Z,2.80
2018-07-09T21:51:01.926Z,2.50
2018-07-09T21:53:29.786Z,2.30
2018-07-09T21:55:57.122Z,2.10
2018-07-09T21:58:24.601Z,2.23
2018-07-09T22:00:51.969Z,2.10
2018-07-09T22:03:19.647Z,1.90
2018-07-09T22:05:46.957Z,2.13
2018-07-09T22:08:14.338Z,2.13
2018-07-09T22:10:41.894Z,1.90
2018-07-09T22:13:09.174Z,1.70
2018-07-09T22:15:36.475Z,1.90
2018-07-09T22:18:03.789Z,1.83
2018-07-09T22:20:31.103Z,1.70
2018-07-09T22:22:58.418Z,1.50
2018-07-09T22:25:25.729Z,1.70
2018-07-09T22:27:53.043Z,1.90
2018-07-09T22:30:28.845Z,2.17
2018-07-09T22:32:57.138Z,1.80
2018-07-09T22:35:25.569Z,1.90
2018-07-09T22:37:54.076Z,1.80
2018-07-09T22:40:22.508Z,1.90
2018-07-09T22:42:50.938Z,1.50
2018-07-09T22:45:19.385Z,2.20
2018-07-09T22:47:47.895Z,1.70
2018-07-09T22:50:16.316Z,2.10
2018-07-09T22:52:44.801Z,1.93
2018-07-09T22:55:24.380Z,1.80
2018-07-09T22:57:52.788Z,1.80
2018-07-09T23:00:21.310Z,1.93
2018-07-09T23:03:15.227Z,1.90
2018-07-09T23:05:44.179Z,2.03
2018-07-09T23:08:13.311Z,1.80
2018-07-09T23:12:55.349Z,2.00
2018-07-09T23:17:42.717Z,1.60
2018-07-09T23:20:22.500Z,1.67
2018-07-09T23:22:49.822Z,1.97
2018-07-09T23:25:17.153Z,1.90
2018-07-09T23:27:44.498Z,1.97
2018-07-09T23:30:11.780Z,2.00
2018-07-09T23:32:39.090Z,1.90
2018-07-09T23:35:06.479Z,1.83
2018-07-09T23:37:33.770Z,2.07
2018-07-09T23:40:01.079Z,2.00
2018-07-09T23:42:28.384Z,1.70
2018-07-09T23:44:55.729Z,1.70
2018-07-09T23:47:23.005Z,2.00
2018-07-09T23:49:50.317Z,1.70
2018-07-09T23:52:17.623Z,1.80
2018-07-09T23:54:44.912Z,1.70
2018-07-09T23:57:26.021Z,1.50
